• Join FlightAware (Why Join?)
  • Login
  • US Flag 
03:45PM EDT


 

Airport Tracker/Info


-or-


 

Live Flight TrackerFlight Track Log ✈ F-GSPR ✈ 02-May-2013 ✈ KIAD - LFPG / CDG

Flight Track Log - Related Links

Times and Time Zones

All times are in EDT time to prevent confusion due to time zone crossing. See the F-GSPR flight status page for this flight to view local times or setup timezone preferences in your user account.

Time Position Orientation Groundspeed Altitude Reporting Facility
EDT Latitude Longitude Course Direction KTS MPH feet Rate Location/Type
09:54PM 38.9667 -77.5500 117° Southeast 194 223 2,500  Level Potomac TRACON
09:55PM 39.0333 -77.5833 339° North 260 299 3,500 1,680 Climbing Potomac TRACON
09:56PM 39.1000 -77.6167 339° North 281 323 5,900 2,280 Climbing Potomac TRACON
09:57PM 39.1500 -77.5667 38° Northeast 281 323 8,200 1,500 Climbing Potomac TRACON
09:58PM 39.1833 -77.4833 63° Northeast 280 322 9,000 420 Climbing Potomac TRACON
09:58PM 39.2167 -77.4000 63° Northeast 276 318 9,000 300 Level Potomac TRACON
09:59PM 39.2532 -76.7662 117° Southeast  Level FlightAware Approximate
10:00PM 39.2583 -77.2614 69° East 286 329 9,900  Level Washington Center
10:01PM 39.2908 -77.1683 66° East 281 323 10,700 900 Climbing Washington Center
10:02PM 39.3275 -77.0592 66° East 300 345 11,800 1,860 Climbing Washington Center
10:04PM 39.2658 -76.8033 107° East 353 406 16,300 2,100 Climbing Washington Center
10:05PM 39.2233 -76.6658 112° Southeast 380 437 18,100 1,680 Climbing Washington Center
10:06PM 39.1808 -76.5261 111° Southeast 404 465 19,700 1,800 Climbing Washington Center
10:07PM 39.1358 -76.3783 111° Southeast 425 489 21,700 1,860 Climbing Washington Center
10:08PM 39.0889 -76.2308 112° Southeast 437 503 23,500 1,560 Climbing Washington Center
10:09PM 39.0478 -76.0728 108° East 443 510 24,900 1,320 Climbing Washington Center
10:10PM 39.0483 -75.9069 90° East 454 522 26,200 1,320 Climbing Washington Center
10:11PM 39.0569 -75.7333 86° East 464 534 27,600 1,380 Climbing Washington Center
10:12PM 39.0656 -75.5569 86° East 474 545 29,000 1,320 Climbing Washington Center
10:13PM 39.0736 -75.3778 87° East 488 562 30,300 960 Climbing Washington Center
10:14PM 39.0794 -75.1986 88° East 498 573 31,000 1,140 Climbing Washington Center
10:15PM 39.0869 -75.0219 87° East 492 566 32,600 1,560 Climbing Washington Center
10:16PM 39.0903 -74.8428 89° East 492 566 34,100 1,320 Climbing Washington Center
10:17PM 39.0472 -74.6775 108° East 487 560 35,400 1,080 Climbing Washington Center
10:18PM 39.0436 -74.5039 91° East 482 555 36,300 420 Climbing Washington Center
10:20PM 39.0725 -74.0950 85° East 481 554 37,000 180 Climbing New York Center
10:21PM 39.0811 -73.9267 86° East 476 548 37,000  Level New York Center
10:22PM 39.0919 -73.7561 85° East 476 548 37,000 -60 Level New York Center
10:23PM 39.1025 -73.5853 85° East 476 548 36,900 -60 Descending New York Center
10:24PM 39.1125 -73.4197 85° East 476 548 36,900  Level New York Center
10:25PM 39.1253 -73.2247 85° East 482 555 37,000  Climbing New York Center
10:26PM 39.1369 -73.0564 85° East 482 555 37,000  Level New York Center
10:27PM 39.1444 -72.8800 87° East 476 548 37,000 -60 Level New York Center
10:28PM 39.1517 -72.7117 87° East 476 548 36,900 -60 Descending New York Center
10:29PM 39.1628 -72.5406 85° East 476 548 36,900  Level New York Center
10:30PM 39.1714 -72.3719 86° East 481 554 37,000  Climbing New York Center
10:31PM 39.1778 -72.1981 87° East 476 548 36,900  Descending New York Center
10:32PM 39.1861 -72.0269 86° East 476 548 37,000  Climbing New York Center
10:34PM 39.1961 -71.8556 86° East 476 548 36,900 -60 Descending New York Center
10:34PM 39.2039 -71.6814 87° East 481 554 36,900  Level New York Center
10:35PM 39.2428 -71.5239 72° East 466 536 37,000  Climbing New York Center
10:37PM 39.3039 -71.3797 61° Northeast 454 522 36,900 -60 Descending New York Center
10:37PM 39.3653 -71.2461 59° Northeast 442 509 36,900  Level New York Center
10:38PM 39.4261 -71.1039 61° Northeast 442 509 36,900  Level New York Center
10:39PM 39.4869 -70.9644 60° Northeast 442 509 37,000  Climbing New York Center
10:40PM 39.5517 -70.8219 59° Northeast 437 503 37,000 -60 Level New York Center
10:41PM 39.6103 -70.6819 61° Northeast 443 510 36,900 -60 Descending New York Center
10:42PM 39.6706 -70.5444 60° Northeast 436 502 36,900  Level New York Center
10:43PM 39.7328 -70.4011 61° Northeast 441 507 37,000  Climbing New York Center
10:44PM 39.7950 -70.2686 59° Northeast 441 507 37,000  Level New York Center
10:45PM 39.8547 -70.1222 62° Northeast 441 507 37,000 -60 Level New York Center
10:46PM 39.9164 -69.9808 60° Northeast 441 507 36,900 -60 Descending New York Center
10:47PM 39.9758 -69.8447 60° Northeast 441 507 36,900  Level New York Center
10:49PM 40.0353 -69.7006 62° Northeast 446 513 36,900  Level New York Center
10:49PM 40.0922 -69.5614 62° Northeast 441 507 36,900  Level New York Center
10:50PM 40.1511 -69.4192 62° Northeast 441 507 36,900  Level New York Center
10:51PM 40.2058 -69.2822 62° Northeast 431 496 37,000  Climbing New York Center
10:52PM 40.2647 -69.1450 61° Northeast 431 496 37,000 240 Level New York Center
10:53PM 40.3211 -69.0078 62° Northeast 431 496 37,500 480 Climbing New York Center
10:55PM 40.3775 -68.8700 62° Northeast 426 490 38,000 180 Climbing New York Center
10:55PM 40.4356 -68.7269 62° Northeast 426 490 37,900  Descending New York Center
10:56PM 40.4933 -68.5833 62° Northeast 431 496 38,000  Climbing New York Center
10:57PM 40.5492 -68.4422 62° Northeast 442 509 38,000  Level New York Center
10:58PM 40.6047 -68.3011 63° Northeast 437 503 38,000 -60 Level New York Center
10:59PM 40.6642 -68.1567 61° Northeast 437 503 37,900  Descending New York Center
11:00PM 40.7156 -68.0233 63° Northeast 444 511 38,000  Climbing New York Center
11:02PM 40.7725 -67.8786 63° Northeast 444 511 37,900 -60 Descending New York Center
11:02PM 40.8336 -67.7308 61° Northeast 444 511 37,900  Level New York Center
11:03PM 40.8903 -67.5858 63° Northeast 438 504 37,900  Level New York Center
11:04PM 40.9444 -67.4378 64° Northeast 443 510 38,000  Climbing New York Center
11:05PM 41.0050 -67.2892 62° Northeast 443 510 37,900 -60 Descending New York Center
11:06PM 41.0631 -67.1431 62° Northeast 443 510 37,900  Level New York Center
11:07PM 41.1167 -67.0000 78° East 465 535 38,000  Climbing New York Oceanic (ODAPS)
11:08PM 41.1333 -66.8500 78° East 464 534 38,000  Level New York Oceanic (ODAPS)
11:10PM 41.2000 -66.5167 79° East 463 533 38,000  Level New York Oceanic (ODAPS)
11:14PM 41.2723 -65.9882 79° East 465 535 38,000  Level FlightAware Transoceanic
11:15PM 41.2891 -65.8348 79° East 464 534 38,000  Level FlightAware Transoceanic
11:16PM 41.3262 -65.6689 79° East 463 533 38,000  Level FlightAware Transoceanic
11:17PM 41.3506 -65.4990 79° East 463 533 38,000  Level FlightAware Transoceanic
11:18PM 41.3749 -65.3289 79° East 463 533 38,000  Level FlightAware Transoceanic
11:19PM 41.3989 -65.1587 79° East 463 533 38,000  Level FlightAware Transoceanic
11:20PM 41.4226 -64.9884 80° East 463 533 38,000  Level FlightAware Transoceanic
11:21PM 41.4461 -64.8179 80° East 463 533 38,000  Level FlightAware Transoceanic
11:22PM 41.4693 -64.6474 80° East 463 533 38,000  Level FlightAware Transoceanic
11:23PM 41.4923 -64.4767 80° East 463 533 38,000  Level FlightAware Transoceanic
11:24PM 41.5150 -64.3059 80° East 463 533 38,000  Level FlightAware Transoceanic
11:25PM 41.5375 -64.1349 80° East 463 533 38,000  Level FlightAware Transoceanic
11:26PM 41.5597 -63.9639 80° East 463 533 38,000  Level FlightAware Transoceanic
11:27PM 41.5817 -63.7927 80° East 463 533 38,000  Level FlightAware Transoceanic
11:28PM 41.6034 -63.6214 80° East 463 533 38,000  Level FlightAware Transoceanic
11:29PM 41.6248 -63.4501 81° East 463 533 38,000  Level FlightAware Transoceanic
11:30PM 41.6460 -63.2785 81° East 463 533 38,000  Level FlightAware Transoceanic
11:31PM 41.6670 -63.1069 81° East 463 533 38,000  Level FlightAware Transoceanic
11:31PM 41.6667 -63.1000 81° East 459 528 38,000  Level New York Oceanic (ODAPS)
11:32PM 41.6877 -62.9352 81° East 463 533 38,000  Level FlightAware Transoceanic
11:33PM 41.7081 -62.7634 81° East 463 533 38,000  Level FlightAware Transoceanic
11:34PM 41.7283 -62.5914 81° East 463 533 38,000  Level FlightAware Transoceanic
11:35PM 41.7482 -62.4194 81° East 463 533 38,000  Level FlightAware Transoceanic
11:36PM 41.7679 -62.2472 81° East 463 533 38,000  Level FlightAware Transoceanic
11:37PM 41.7870 -62.0703 81° East 459 528 38,000  Level FlightAware Transoceanic
11:38PM 41.8062 -61.8983 82° East 459 528 38,000  Level FlightAware Transoceanic
11:39PM 41.8251 -61.7262 82° East 459 528 38,000  Level FlightAware Transoceanic
11:40PM 41.8438 -61.5540 82° East 459 528 38,000  Level FlightAware Transoceanic
11:41PM 41.8621 -61.3817 82° East 459 528 38,000  Level FlightAware Transoceanic
11:42PM 41.8803 -61.2094 82° East 459 528 38,000  Level FlightAware Transoceanic
11:43PM 41.8982 -61.0369 82° East 459 528 38,000  Level FlightAware Transoceanic
11:44PM 41.9158 -60.8643 82° East 459 528 38,000  Level FlightAware Transoceanic
11:45PM 41.9331 -60.6916 82° East 459 528 38,000  Level FlightAware Transoceanic
11:46PM 41.9502 -60.5188 82° East 459 528 38,000  Level FlightAware Transoceanic
11:47PM 41.9671 -60.3460 83° East 459 528 38,000  Level FlightAware Transoceanic
11:48PM 41.9837 -60.1730 83° East 459 528 38,000  Level FlightAware Transoceanic
11:49PM 42.0000 -60.0000 71° East 459 528 38,000  Level FlightAware Transoceanic
11:49PM 42.0000 -60.0000 71° East 463 533 38,000  Level New York Oceanic (ODAPS)
11:50PM 42.0403 -59.8389 71° East 459 528 38,000  Level FlightAware Transoceanic
11:51PM 42.0804 -59.6776 72° East 459 528 38,000  Level FlightAware Transoceanic
11:51PM 42.0833 -59.6833 72° East 463 533 38,000  Level New York Oceanic (ODAPS)
11:52PM 42.1203 -59.5162 72° East 459 528 38,000  Level FlightAware Transoceanic
11:53PM 42.1599 -59.3545 72° East 459 528 38,000  Level FlightAware Transoceanic
11:54PM 42.1993 -59.1926 72° East 459 528 38,000  Level FlightAware Transoceanic
11:55PM 42.2425 -59.0140 72° East 463 533 38,000  Level FlightAware Transoceanic
11:56PM 42.2821 -58.8489 72° East 463 533 38,000  Level FlightAware Transoceanic
11:57PM 42.3229 -58.6936 72° East 463 533 38,000  Level FlightAware Transoceanic
11:58PM 42.3620 -58.5280 72° East 463 533 38,000  Level FlightAware Transoceanic
11:59PM 42.4009 -58.3621 72° East 463 533 38,000  Level FlightAware Transoceanic
12:00AM 42.4395 -58.1960 73° East 463 533 38,000  Level FlightAware Transoceanic
12:01AM 42.4779 -58.0297 73° East 463 533 38,000  Level FlightAware Transoceanic
12:02AM 42.5160 -57.8632 73° East 463 533 38,000  Level FlightAware Transoceanic
12:03AM 42.5539 -57.6965 73° East 463 533 38,000  Level FlightAware Transoceanic
12:04AM 42.5915 -57.5296 73° East 463 533 38,000  Level FlightAware Transoceanic
12:05AM 42.6290 -57.3625 73° East 463 533 38,000  Level FlightAware Transoceanic
12:06AM 42.6661 -57.1952 73° East 463 533 38,000  Level FlightAware Transoceanic
12:07AM 42.7030 -57.0277 73° East 463 533 38,000  Level FlightAware Transoceanic
12:08AM 42.7397 -56.8600 73° East 463 533 38,000  Level FlightAware Transoceanic
12:09AM 42.7762 -56.6921 74° East 463 533 38,000  Level FlightAware Transoceanic
12:10AM 42.8124 -56.5240 74° East 463 533 38,000  Level FlightAware Transoceanic
12:11AM 42.8483 -56.3557 74° East 463 533 38,000  Level FlightAware Transoceanic
12:11AM 42.8500 -56.3500 74° East 459 528 38,000  Level New York Oceanic (ODAPS)
12:12AM 42.8840 -56.1872 74° East 463 533 38,000  Level FlightAware Transoceanic
12:13AM 42.9195 -56.0186 74° East 463 533 38,000  Level FlightAware Transoceanic
12:14AM 42.9547 -55.8497 74° East 463 533 38,000  Level FlightAware Transoceanic
12:15AM 42.9896 -55.6806 74° East 463 533 38,000  Level FlightAware Transoceanic
12:16AM 43.0243 -55.5114 74° East 463 533 38,000  Level FlightAware Transoceanic
12:17AM 43.0547 -55.3638 75° East 459 528 38,000  Level FlightAware Transoceanic
12:18AM 43.0880 -55.1988 75° East 459 528 38,000  Level FlightAware Transoceanic
12:19AM 43.1211 -55.0337 75° East 459 528 38,000  Level FlightAware Transoceanic
12:20AM 43.1539 -54.8683 75° East 459 528 38,000  Level FlightAware Transoceanic
12:21AM 43.1865 -54.7028 75° East 459 528 38,000  Level FlightAware Transoceanic
12:22AM 43.2188 -54.5371 75° East 459 528 38,000  Level FlightAware Transoceanic
12:23AM 43.2509 -54.3712 75° East 459 528 38,000  Level FlightAware Transoceanic
12:24AM 43.2828 -54.2051 75° East 459 528 38,000  Level FlightAware Transoceanic
12:25AM 43.3144 -54.0389 75° East 459 528 38,000  Level FlightAware Transoceanic
12:26AM 43.3458 -53.8725 76° East 459 528 38,000  Level FlightAware Transoceanic
12:27AM 43.3770 -53.7059 76° East 459 528 38,000  Level FlightAware Transoceanic
12:28AM 43.4079 -53.5392 76° East 459 528 38,000  Level FlightAware Transoceanic
12:29AM 43.4385 -53.3723 76° East 459 528 38,000  Level FlightAware Transoceanic
12:30AM 43.4689 -53.2052 76° East 459 528 38,000  Level FlightAware Transoceanic
12:31AM 43.4991 -53.0379 76° East 459 528 38,000  Level FlightAware Transoceanic
12:31AM 43.5167 -52.9500 76° East 460 529 38,000  Level New York Oceanic (ODAPS)
12:32AM 43.5290 -52.8705 76° East 459 528 38,000  Level FlightAware Transoceanic
12:33AM 43.5587 -52.7029 76° East 459 528 38,000  Level FlightAware Transoceanic
12:34AM 43.5882 -52.5352 76° East 459 528 38,000  Level FlightAware Transoceanic
12:35AM 43.6174 -52.3673 77° East 459 528 38,000  Level FlightAware Transoceanic
12:36AM 43.6463 -52.1992 77° East 459 528 38,000  Level FlightAware Transoceanic
12:37AM 43.6750 -52.0310 77° East 459 528 38,000  Level FlightAware Transoceanic
12:38AM 43.6959 -51.9143 77° East 460 529 38,000  Level FlightAware Transoceanic
12:39AM 43.7249 -51.7411 77° East 460 529 38,000  Level FlightAware Transoceanic
12:40AM 43.7536 -51.5677 77° East 460 529 38,000  Level FlightAware Transoceanic
12:41AM 43.7820 -51.3942 77° East 460 529 38,000  Level FlightAware Transoceanic
12:42AM 43.8102 -51.2205 77° East 460 529 38,000  Level FlightAware Transoceanic
12:43AM 43.8381 -51.0466 78° East 460 529 38,000  Level FlightAware Transoceanic
12:44AM 43.8657 -50.8726 78° East 460 529 38,000  Level FlightAware Transoceanic
12:45AM 43.8931 -50.6984 78° East 460 529 38,000  Level FlightAware Transoceanic
12:46AM 43.9202 -50.5240 78° East 460 529 38,000  Level FlightAware Transoceanic
12:47AM 43.9471 -50.3495 78° East 460 529 38,000  Level FlightAware Transoceanic
12:48AM 43.9737 -50.1748 78° East 460 529 38,000  Level FlightAware Transoceanic
12:49AM 44.0000 -50.0000 71° East 460 529 38,000  Level FlightAware Transoceanic
12:49AM 44.0000 -50.0000 71° East 462 532 38,000  Level New York Oceanic (ODAPS)
12:50AM 44.0417 -49.8338 71° East 460 529 38,000  Level FlightAware Transoceanic
12:51AM 44.0832 -49.6673 71° East 460 529 38,000  Level FlightAware Transoceanic
12:52AM 44.1244 -49.5006 71° East 460 529 38,000  Level FlightAware Transoceanic
12:52AM 44.1333 -49.4667 71° East 460 529 38,000  Level New York Oceanic (ODAPS)
12:53AM 44.1654 -49.3337 71° East 460 529 38,000  Level FlightAware Transoceanic
12:54AM 44.2061 -49.1665 71° East 460 529 38,000  Level FlightAware Transoceanic
12:55AM 44.2509 -48.9815 71° East 462 532 38,000  Level FlightAware Transoceanic
12:56AM 44.2918 -48.8109 72° East 462 532 38,000  Level FlightAware Transoceanic
12:57AM 44.3325 -48.6401 72° East 462 532 38,000  Level FlightAware Transoceanic
12:58AM 44.3787 -48.4465 72° East 460 529 38,000  Level FlightAware Transoceanic
12:59AM 44.4187 -48.2756 72° East 460 529 38,000  Level FlightAware Transoceanic
01:00AM 44.4585 -48.1045 72° East 460 529 38,000  Level FlightAware Transoceanic
01:01AM 44.4980 -47.9332 72° East 460 529 38,000  Level FlightAware Transoceanic
01:02AM 44.5372 -47.7617 72° East 460 529 38,000  Level FlightAware Transoceanic
01:03AM 44.5762 -47.5899 72° East 460 529 38,000  Level FlightAware Transoceanic
01:04AM 44.6150 -47.4179 73° East 460 529 38,000  Level FlightAware Transoceanic
01:05AM 44.6534 -47.2456 73° East 460 529 38,000  Level FlightAware Transoceanic
01:06AM 44.6916 -47.0732 73° East 460 529 38,000  Level FlightAware Transoceanic
01:07AM 44.7296 -46.9005 73° East 460 529 38,000  Level FlightAware Transoceanic
01:08AM 44.7673 -46.7276 73° East 460 529 38,000  Level FlightAware Transoceanic
01:09AM 44.8047 -46.5544 73° East 460 529 38,000  Level FlightAware Transoceanic
01:10AM 44.8419 -46.3810 73° East 460 529 38,000  Level FlightAware Transoceanic
01:11AM 44.8788 -46.2075 73° East 460 529 38,000  Level FlightAware Transoceanic
01:12AM 44.9154 -46.0336 73° East 460 529 38,000  Level FlightAware Transoceanic
01:13AM 44.9518 -45.8596 74° East 460 529 38,000  Level FlightAware Transoceanic
01:14AM 44.9879 -45.6853 74° East 460 529 38,000  Level FlightAware Transoceanic
01:15AM 45.0238 -45.5109 74° East 460 529 38,000  Level FlightAware Transoceanic
01:16AM 45.0594 -45.3362 74° East 460 529 38,000  Level FlightAware Transoceanic
01:17AM 45.0947 -45.1613 74° East 460 529 38,000  Level FlightAware Transoceanic
01:18AM 45.1297 -44.9861 74° East 460 529 38,000  Level FlightAware Transoceanic
01:19AM 45.1645 -44.8108 74° East 460 529 38,000  Level FlightAware Transoceanic
01:20AM 45.1990 -44.6353 74° East 460 529 38,000  Level FlightAware Transoceanic
01:21AM 45.2333 -44.4595 75° East 460 529 38,000  Level FlightAware Transoceanic
01:22AM 45.2672 -44.2835 75° East 460 529 38,000  Level FlightAware Transoceanic
01:23AM 45.3009 -44.1073 75° East 460 529 38,000  Level FlightAware Transoceanic
01:24AM 45.3344 -43.9309 75° East 460 529 38,000  Level FlightAware Transoceanic
01:25AM 45.3675 -43.7543 75° East 460 529 38,000  Level FlightAware Transoceanic
01:26AM 45.4004 -43.5775 75° East 460 529 38,000  Level FlightAware Transoceanic
01:27AM 45.4330 -43.4005 75° East 460 529 38,000  Level FlightAware Transoceanic
01:28AM 45.4654 -43.2233 75° East 460 529 38,000  Level FlightAware Transoceanic
01:29AM 45.4974 -43.0459 76° East 460 529 38,000  Level FlightAware Transoceanic
01:30AM 45.5292 -42.8682 76° East 460 529 38,000  Level FlightAware Transoceanic
01:31AM 45.5607 -42.6904 76° East 460 529 38,000  Level FlightAware Transoceanic
01:32AM 45.5920 -42.5124 76° East 460 529 38,000  Level FlightAware Transoceanic
01:33AM 45.6230 -42.3342 76° East 460 529 38,000  Level FlightAware Transoceanic
01:34AM 45.6536 -42.1558 76° East 460 529 38,000  Level FlightAware Transoceanic
01:35AM 45.6840 -41.9771 76° East 460 529 38,000  Level FlightAware Transoceanic
01:36AM 45.7142 -41.7984 77° East 460 529 38,000  Level FlightAware Transoceanic
01:37AM 45.7440 -41.6194 77° East 460 529 38,000  Level FlightAware Transoceanic
01:38AM 45.7736 -41.4402 77° East 460 529 38,000  Level FlightAware Transoceanic
01:39AM 45.8029 -41.2608 77° East 460 529 38,000  Level FlightAware Transoceanic
01:40AM 45.8319 -41.0812 77° East 460 529 38,000  Level FlightAware Transoceanic
01:41AM 45.8606 -40.9015 77° East 460 529 38,000  Level FlightAware Transoceanic
01:42AM 45.8890 -40.7215 77° East 460 529 38,000  Level FlightAware Transoceanic
01:43AM 45.9172 -40.5414 77° East 460 529 38,000  Level FlightAware Transoceanic
01:44AM 45.9451 -40.3611 78° East 460 529 38,000  Level FlightAware Transoceanic
01:45AM 45.9727 -40.1807 78° East 460 529 38,000  Level FlightAware Transoceanic
01:46AM 46.0000 -40.0000 70° East 460 529 38,000  Level FlightAware Transoceanic
01:47AM 46.0439 -39.8252 70° East 460 529 38,000  Level FlightAware Transoceanic
01:48AM 46.0876 -39.6501 70° East 460 529 38,000  Level FlightAware Transoceanic
01:49AM 46.1311 -39.4747 70° East 460 529 38,000  Level FlightAware Transoceanic
01:50AM 46.1742 -39.2990 71° East 460 529 38,000  Level FlightAware Transoceanic
01:51AM 46.2171 -39.1231 71° East 460 529 38,000  Level FlightAware Transoceanic
01:52AM 46.2597 -38.9468 71° East 460 529 38,000  Level FlightAware Transoceanic
01:53AM 46.3020 -38.7704 71° East 460 529 38,000  Level FlightAware Transoceanic
01:54AM 46.3441 -38.5936 71° East 460 529 38,000  Level FlightAware Transoceanic
01:55AM 46.3859 -38.4166 71° East 460 529 38,000  Level FlightAware Transoceanic
01:56AM 46.4274 -38.2393 71° East 460 529 38,000  Level FlightAware Transoceanic
01:57AM 46.4687 -38.0617 71° East 460 529 38,000  Level FlightAware Transoceanic
01:58AM 46.5096 -37.8839 72° East 460 529 38,000  Level FlightAware Transoceanic
01:59AM 46.5503 -37.7057 72° East 460 529 38,000  Level FlightAware Transoceanic
02:00AM 46.5908 -37.5274 72° East 460 529 38,000  Level FlightAware Transoceanic
02:01AM 46.6309 -37.3487 72° East 460 529 38,000  Level FlightAware Transoceanic
02:02AM 46.6708 -37.1698 72° East 460 529 38,000  Level FlightAware Transoceanic
02:03AM 46.7103 -36.9907 72° East 460 529 38,000  Level FlightAware Transoceanic
02:04AM 46.7496 -36.8112 72° East 460 529 38,000  Level FlightAware Transoceanic
02:05AM 46.7887 -36.6315 72° East 460 529 38,000  Level FlightAware Transoceanic
02:06AM 46.8274 -36.4516 73° East 460 529 38,000  Level FlightAware Transoceanic
02:07AM 46.8659 -36.2714 73° East 460 529 38,000  Level FlightAware Transoceanic
02:08AM 46.9040 -36.0909 73° East 460 529 38,000  Level FlightAware Transoceanic
02:09AM 46.9419 -35.9102 73° East 460 529 38,000  Level FlightAware Transoceanic
02:10AM 46.9795 -35.7292 73° East 460 529 38,000  Level FlightAware Transoceanic
02:11AM 47.0169 -35.5480 73° East 460 529 38,000  Level FlightAware Transoceanic
02:12AM 47.0539 -35.3665 73° East 460 529 38,000  Level FlightAware Transoceanic
02:13AM 47.0906 -35.1848 74° East 460 529 38,000  Level FlightAware Transoceanic
02:14AM 47.1271 -35.0028 74° East 460 529 38,000  Level FlightAware Transoceanic
02:15AM 47.1633 -34.8206 74° East 460 529 38,000  Level FlightAware Transoceanic
02:16AM 47.1992 -34.6381 74° East 460 529 38,000  Level FlightAware Transoceanic
02:17AM 47.2347 -34.4554 74° East 460 529 38,000  Level FlightAware Transoceanic
02:18AM 47.2700 -34.2724 74° East 460 529 38,000  Level FlightAware Transoceanic
02:19AM 47.3050 -34.0892 74° East 460 529 38,000  Level FlightAware Transoceanic
02:20AM 47.3398 -33.9057 74° East 460 529 38,000  Level FlightAware Transoceanic
02:21AM 47.3742 -33.7220 75° East 460 529 38,000  Level FlightAware Transoceanic
02:22AM 47.4083 -33.5381 75° East 460 529 38,000  Level FlightAware Transoceanic
02:23AM 47.4422 -33.3539 75° East 460 529 38,000  Level FlightAware Transoceanic
02:24AM 47.4757 -33.1695 75° East 460 529 38,000  Level FlightAware Transoceanic
02:25AM 47.5089 -32.9849 75° East 460 529 38,000  Level FlightAware Transoceanic
02:26AM 47.5419 -32.8000 75° East 460 529 38,000  Level FlightAware Transoceanic
02:27AM 47.5745 -32.6149 75° East 460 529 38,000  Level FlightAware Transoceanic
02:28AM 47.6069 -32.4296 76° East 460 529 38,000  Level FlightAware Transoceanic
02:29AM 47.6389 -32.2440 76° East 460 529 38,000  Level FlightAware Transoceanic
02:30AM 47.6707 -32.0582 76° East 460 529 38,000  Level FlightAware Transoceanic
02:31AM 47.7021 -31.8722 76° East 460 529 38,000  Level FlightAware Transoceanic
02:32AM 47.7333 -31.6859 76° East 460 529 38,000  Level FlightAware Transoceanic
02:33AM 47.7641 -31.4995 76° East 460 529 38,000  Level FlightAware Transoceanic
02:34AM 47.7947 -31.3128 76° East 460 529 38,000  Level FlightAware Transoceanic
02:35AM 47.8249 -31.1259 77° East 460 529 38,000  Level FlightAware Transoceanic
02:36AM 47.8549 -30.9388 77° East 460 529 38,000  Level FlightAware Transoceanic
02:37AM 47.8845 -30.7514 77° East 460 529 38,000  Level FlightAware Transoceanic
02:38AM 47.9138 -30.5639 77° East 460 529 38,000  Level FlightAware Transoceanic
02:39AM 47.9429 -30.3761 77° East 460 529 38,000  Level FlightAware Transoceanic
02:40AM 47.9716 -30.1882 77° East 460 529 38,000 -60 Level FlightAware Transoceanic
02:41AM 48.0043 -30.0058 75° East  Level Estimated
02:42AM 48.0368 -29.8232 75° East  Level Estimated
02:43AM 48.0689 -29.6403 75° East  Level Estimated
02:44AM 48.1008 -29.4572 75° East  Level Estimated
02:45AM 48.1324 -29.2739 75° East  Level Estimated
02:46AM 48.1636 -29.0904 76° East  Level Estimated
02:47AM 48.1946 -28.9066 76° East  Level Estimated
02:48AM 48.2253 -28.7227 76° East  Level Estimated
02:49AM 48.2557 -28.5385 76° East  Level Estimated
02:50AM 48.2858 -28.3540 76° East  Level Estimated
02:51AM 48.3156 -28.1694 76° East  Level Estimated
02:52AM 48.3452 -27.9846 76° East  Level Estimated
02:53AM 48.3744 -27.7995 77° East  Level Estimated
02:54AM 48.4033 -27.6142 77° East  Level Estimated
02:55AM 48.4319 -27.4288 77° East  Level Estimated
02:56AM 48.4603 -27.2431 77° East  Level Estimated
02:57AM 48.4883 -27.0572 77° East  Level Estimated
02:58AM 48.5160 -26.8711 77° East  Level Estimated
02:59AM 48.5434 -26.6848 77° East  Level Estimated
03:00AM 48.5706 -26.4983 78° East  Level Estimated
03:01AM 48.5974 -26.3116 78° East  Level Estimated
03:02AM 48.6239 -26.1247 78° East  Level Estimated
03:03AM 48.6502 -25.9376 78° East  Level Estimated
03:04AM 48.6761 -25.7503 78° East  Level Estimated
03:05AM 48.7017 -25.5628 78° East  Level Estimated
03:06AM 48.7270 -25.3752 78° East  Level Estimated
03:07AM 48.7520 -25.1873 79° East  Level Estimated
03:08AM 48.7767 -24.9993 79° East  Level Estimated
03:09AM 48.8011 -24.8110 79° East  Level Estimated
03:10AM 48.8252 -24.6226 79° East  Level Estimated
03:11AM 48.8489 -24.4340 79° East  Level Estimated
03:12AM 48.8724 -24.2453 79° East  Level Estimated
03:13AM 48.8956 -24.0563 79° East  Level Estimated
03:14AM 48.9184 -23.8672 80° East  Level Estimated
03:15AM 48.9410 -23.6779 80° East  Level Estimated
03:16AM 48.9632 -23.4884 80° East  Level Estimated
03:17AM 48.9851 -23.2988 80° East  Level Estimated
03:18AM 49.0067 -23.1090 80° East  Level Estimated
03:19AM 49.0280 -22.9191 80° East  Level Estimated
03:20AM 49.0490 -22.7289 80° East  Level Estimated
03:21AM 49.0697 -22.5387 81° East  Level Estimated
03:22AM 49.0901 -22.3482 81° East  Level Estimated
03:23AM 49.1101 -22.1576 81° East  Level Estimated
03:24AM 49.1298 -21.9669 81° East  Level Estimated
03:25AM 49.1493 -21.7760 81° East  Level Estimated
03:26AM 49.1684 -21.5850 81° East  Level Estimated
03:27AM 49.1872 -21.3938 81° East  Level Estimated
03:28AM 49.2056 -21.2024 82° East  Level Estimated
03:29AM 49.2238 -21.0110 82° East  Level Estimated
03:30AM 49.2416 -20.8194 82° East  Level Estimated
03:31AM 49.2592 -20.6276 82° East  Level Estimated
03:32AM 49.2764 -20.4357 82° East  Level Estimated
03:33AM 49.2933 -20.2437 82° East  Level Estimated
03:34AM 49.3098 -20.0516 82° East  Level Estimated
03:35AM 49.3261 -19.8593 83° East  Level Estimated
03:36AM 49.3420 -19.6669 83° East  Level Estimated
03:37AM 49.3576 -19.4743 83° East  Level Estimated
03:38AM 49.3729 -19.2817 83° East  Level Estimated
03:39AM 49.3879 -19.0889 83° East  Level Estimated
03:40AM 49.4025 -18.8960 83° East  Level Estimated
03:41AM 49.4169 -18.7031 83° East  Level Estimated
03:42AM 49.4309 -18.5099 84° East  Level Estimated
03:43AM 49.4445 -18.3167 84° East  Level Estimated
03:44AM 49.4579 -18.1234 84° East  Level Estimated
03:45AM 49.4710 -17.9300 84° East  Level Estimated
03:46AM 49.4837 -17.7364 84° East  Level Estimated
03:47AM 49.4961 -17.5428 84° East  Level Estimated
03:48AM 49.5081 -17.3491 84° East  Level Estimated
03:49AM 49.5199 -17.1553 85° East  Level Estimated
03:50AM 49.5313 -16.9614 85° East  Level Estimated
03:51AM 49.5424 -16.7674 85° East  Level Estimated
03:52AM 49.5532 -16.5733 85° East  Level Estimated
03:53AM 49.5637 -16.3791 85° East  Level Estimated
03:54AM 49.5738 -16.1849 85° East  Level Estimated
03:55AM 49.5836 -15.9905 85° East  Level Estimated
03:56AM 49.5931 -15.7961 86° East  Level Estimated
03:57AM 49.6022 -15.6016 86° East  Level Estimated
03:58AM 49.6110 -15.4071 86° East  Level Estimated
03:59AM 49.6195 -15.2125 86° East  Level Estimated
04:00AM 49.6277 -15.0178 86° East  Level Estimated
04:01AM 49.6356 -14.8230 86° East  Level Estimated
04:02AM 49.6431 -14.6282 87° East  Level Estimated
04:03AM 49.6503 -14.4333 87° East  Level Estimated
04:04AM 49.6572 -14.2384 87° East  Level Estimated
04:05AM 49.6637 -14.0434 87° East  Level Estimated
04:06AM 49.6699 -13.8483 87° East  Level Estimated
04:07AM 49.6758 -13.6532 87° East  Level Estimated
04:08AM 49.6813 -13.4581 87° East  Level Estimated
04:09AM 49.6866 -13.2629 88° East  Level Estimated
04:10AM 49.6915 -13.0677 88° East  Level Estimated
04:11AM 49.6960 -12.8725 88° East  Level Estimated
04:12AM 49.7003 -12.6772 88° East  Level Estimated
04:13AM 49.7042 -12.4819 88° East  Level Estimated
04:14AM 49.7078 -12.2865 88° East  Level Estimated
04:15AM 49.7110 -12.0911 88° East  Level Estimated
04:16AM 49.7140 -11.8957 89° East  Level Estimated
04:17AM 49.7166 -11.7003 89° East  Level Estimated
04:18AM 49.7188 -11.5049 89° East  Level Estimated
04:19AM 49.7208 -11.3094 89° East  Level Estimated
04:20AM 49.7224 -11.1139 89° East  Level Estimated
04:21AM 49.7237 -10.9184 89° East  Level Estimated
04:21AM 49.5934 -8.9762 89° East 480 552 37,400  Level FlightAware UK
04:21AM 49.5875 -8.9131 98° East 480 552 37,500  Climbing FlightAware UK
04:22AM 49.5817 -8.8500 98° East 480 552 37,400  Descending FlightAware UK
04:22AM 49.5758 -8.7869 98° East 480 552 37,500 120 Climbing FlightAware UK
04:22AM 49.5700 -8.7236 98° East 480 552 37,500  Level FlightAware UK
04:23AM 49.5642 -8.6606 98° East 480 552 37,500  Level FlightAware UK
04:23AM 49.5582 -8.5975 98° East 480 552 37,500  Level FlightAware UK
04:23AM 49.5521 -8.5344 98° East 480 552 37,500  Level FlightAware UK
04:24AM 49.5460 -8.4713 98° East 480 552 37,500  Level FlightAware UK
04:24AM 49.5399 -8.4081 98° East 480 552 37,500  Level FlightAware UK
04:24AM 49.5337 -8.3448 99° East 480 552 37,500  Level FlightAware UK
04:24AM 49.5276 -8.2815 99° East 480 552 37,500  Level FlightAware UK
04:25AM 49.5214 -8.2181 98° East 480 552 37,500  Level FlightAware UK
04:25AM 49.5154 -8.1547 98° East 482 555 37,500  Level FlightAware UK
04:25AM 49.5091 -8.0913 99° East 482 555 37,500  Level FlightAware UK
04:26AM 49.5028 -8.0272 99° East 480 552 37,500  Level FlightAware UK
04:26AM 49.4978 -7.9634 97° East 480 552 37,500  Level FlightAware UK
04:26AM 49.4973 -7.8985 91° East 484 557 37,500  Level FlightAware UK
04:27AM 49.4957 -7.8341 92° East 482 555 37,500  Level FlightAware UK
04:27AM 49.4942 -7.7698 92° East 482 555 37,500  Level FlightAware UK
04:27AM 49.4928 -7.7055 92° East 480 552 37,500  Level FlightAware UK
04:27AM 49.4915 -7.6413 92° East 480 552 37,500  Level FlightAware UK
04:28AM 49.4899 -7.5770 92° East 484 557 37,500  Level FlightAware UK
04:28AM 49.4884 -7.5128 92° East 486 559 37,500  Level FlightAware UK
04:28AM 49.4867 -7.4485 92° East 482 555 37,500  Level FlightAware UK
04:29AM 49.4850 -7.3843 92° East 484 557 37,500  Level FlightAware UK
04:29AM 49.4834 -7.3201 92° East 478 550 37,500  Level FlightAware UK
04:29AM 49.4817 -7.2560 92° East 480 552 37,500  Level FlightAware UK
04:30AM 49.4799 -7.1918 92° East 482 555 37,500  Level FlightAware UK
04:30AM 49.4783 -7.1275 92° East 484 557 37,500  Level FlightAware UK
04:30AM 49.4765 -7.0631 92° East 484 557 37,500  Level FlightAware UK
04:30AM 49.4745 -6.9988 93° East 484 557 37,500  Level FlightAware UK
04:31AM 49.4725 -6.9336 93° East 486 559 37,500  Level FlightAware UK
04:31AM 49.4704 -6.8692 93° East 484 557 37,500  Level FlightAware UK
04:31AM 49.4684 -6.8049 93° East 484 557 37,500  Level FlightAware UK
04:32AM 49.4665 -6.7407 93° East 484 557 37,500  Level FlightAware UK
04:32AM 49.4644 -6.6767 93° East 486 559 37,500  Level FlightAware UK
04:32AM 49.4627 -6.6125 92° East 486 559 37,500  Level FlightAware UK
04:33AM 49.4607 -6.5484 93° East 484 557 37,500  Level FlightAware UK
04:33AM 49.4584 -6.4845 93° East 484 557 37,500  Level FlightAware UK
04:33AM 49.4562 -6.4207 93° East 484 557 37,500  Level FlightAware UK
04:33AM 49.4539 -6.3570 93° East 484 557 37,500  Level FlightAware UK
04:34AM 49.4516 -6.2933 93° East 482 555 37,500  Level FlightAware UK
04:34AM 49.4493 -6.2296 93° East 484 557 37,500  Level FlightAware UK
04:34AM 49.4470 -6.1657 93° East 484 557 37,500  Level FlightAware UK
04:35AM 49.4447 -6.1018 93° East 484 557 37,500  Level FlightAware UK
04:35AM 49.4424 -6.0379 93° East 484 557 37,500  Level FlightAware UK
04:35AM 49.4399 -5.9739 93° East 484 557 37,500  Level FlightAware UK
04:36AM 49.4373 -5.9100 94° East 482 555 37,500  Level FlightAware UK
04:36AM 49.4349 -5.8460 93° East 482 555 37,500  Level FlightAware UK
04:36AM 49.4318 -5.7597 93° East 486 559 37,500  Level FlightAware UK
04:37AM 49.4292 -5.6956 94° East 486 559 37,500  Level FlightAware UK
04:37AM 49.4265 -5.6316 94° East 484 557 37,500  Level FlightAware UK
04:37AM 49.4240 -5.5676 93° East 482 555 37,500  Level FlightAware UK
04:37AM 49.4214 -5.5036 94° East 484 557 37,500  Level FlightAware UK
04:38AM 49.4186 -5.4397 94° East 484 557 37,500  Level FlightAware UK
04:38AM 49.4147 -5.3546 94° East 484 557 37,500  Level FlightAware UK
04:38AM 49.4118 -5.2907 94° East 486 559 37,500  Level FlightAware UK
04:39AM 49.4089 -5.2267 94° East 490 564 37,500  Level FlightAware UK
04:39AM 49.4061 -5.1628 94° East 484 557 37,500  Level FlightAware UK
04:39AM 49.4030 -5.0991 94° East 484 557 37,500  Level FlightAware UK
04:40AM 49.4002 -5.0353 94° East 486 559 37,500  Level FlightAware UK
04:40AM 49.3975 -4.9715 94° East 486 559 37,500  Level FlightAware UK
04:40AM 49.3943 -4.9079 94° East 484 557 37,500  Level FlightAware UK
04:41AM 49.3912 -4.8434 94° East 484 557 37,500  Level FlightAware UK
04:41AM 49.3861 -4.7372 94° East 488 562 37,500  Level FlightAware UK
04:41AM 49.3830 -4.6735 94° East 484 557 37,500  Level FlightAware UK
04:42AM 49.3805 -4.6098 93° East 484 557 37,500  Level FlightAware UK
04:42AM 49.3807 -4.5461 90° East 482 555 37,500  Level FlightAware UK
04:42AM 49.3807 -4.4820 90° East 484 557 37,500  Level FlightAware UK
04:43AM 49.3813 -4.3538 90° East 486 559 37,500  Level FlightAware UK
04:43AM 49.3826 -4.2468 89° East 488 562 37,500  Level FlightAware UK
04:44AM 49.3848 -4.1188 88° East 488 562 37,500  Level FlightAware UK
04:45AM 49.3870 -3.9909 88° East 488 562 37,500  Level FlightAware UK
04:45AM 49.3881 -3.9051 89° East 488 562 37,500  Level FlightAware UK
04:45AM 49.3888 -3.8415 89° East 490 564 37,500  Level FlightAware UK
04:46AM 49.3896 -3.7568 89° East 488 562 37,500  Level FlightAware UK
04:46AM 49.3900 -3.6934 89° East 490 564 37,500  Level FlightAware UK
04:47AM 49.3912 -3.5460 89° East 488 562 37,500  Level FlightAware UK
04:47AM 49.3920 -3.4618 89° East 490 564 37,500  Level FlightAware UK
04:47AM 49.3924 -3.3980 89° East 486 559 37,500  Level FlightAware UK
04:48AM 49.3926 -3.3348 90° East 488 562 37,500  Level FlightAware UK
04:48AM 49.3928 -3.2718 90° East 486 559 37,500  Level FlightAware UK
04:49AM 49.3931 -3.0817 90° East 1 1 37,500  Level FlightAware UK
04:49AM 49.3932 -2.9761 90° East 486 559 37,500  Level FlightAware UK
04:50AM 49.3935 -2.8913 90° East 486 559 37,500 -180 Level FlightAware UK
04:50AM 49.3933 -2.8066 90° East 488 562 37,400 -180 Descending FlightAware UK
04:50AM 49.3932 -2.7420 90° East 490 564 37,400  Level FlightAware UK
04:51AM 49.3931 -2.6783 90° East 492 566 37,400  Level FlightAware UK
04:51AM 49.3928 -2.6147 90° East 492 566 37,400 120 Level FlightAware UK
04:51AM 49.3927 -2.5515 90° East 486 559 37,500  Climbing FlightAware UK
04:52AM 49.3927 -2.4244 90° East 490 564 37,400  Descending FlightAware UK
04:52AM 49.3924 -2.3402 90° East 490 564 37,500 60 Climbing FlightAware UK
04:53AM 49.3919 -2.2343 90° East 488 562 37,500  Level FlightAware UK
04:53AM 49.3913 -2.1084 90° East 488 562 37,500  Level FlightAware UK
04:54AM 49.3909 -2.0242 90° East 488 562 37,500  Level FlightAware UK
04:55AM 49.3893 -1.8543 91° East 486 559 37,500 -120 Level FlightAware UK
04:55AM 49.3887 -1.7697 91° East 490 564 37,400  Descending FlightAware UK
04:56AM 49.3878 -1.6642 91° East 490 564 37,500 60 Climbing FlightAware UK
04:56AM 49.3866 -1.5579 91° East 490 564 37,500  Level FlightAware UK
04:56AM 49.3857 -1.4744 91° East 490 564 37,500 -240 Level FlightAware UK
04:57AM 49.3841 -1.3483 91° East 474 545 37,300 -480 Descending FlightAware UK
04:57AM 49.3831 -1.2885 91° East 470 541 37,100 -840 Descending FlightAware UK
04:58AM 49.3821 -1.2286 91° East 456 525 36,800 -1,200 Descending FlightAware UK
04:58AM 49.3811 -1.1508 91° East 446 513 36,300 -1,740 Descending FlightAware UK
04:59AM 49.3792 -1.0182 91° East 440 506 34,900 -2,040 Descending FlightAware UK
04:59AM 49.3783 -0.9616 91° East 442 509 34,300 -2,160 Descending FlightAware UK
05:00AM 49.3750 -0.7761 91° East 428 493 32,100 -2,160 Descending FlightAware UK
05:00AM 49.3741 -0.7200 91° East 428 493 31,500 -1,380 Descending FlightAware UK
05:01AM 49.3718 -0.5927 92° East 408 470 30,700 -1,380 Descending FlightAware UK
05:02AM 49.3700 -0.5072 92° East 402 463 29,900 -1,620 Descending FlightAware UK
05:02AM 49.3681 -0.4230 92° East 394 453 29,100 -1,500 Descending FlightAware UK
05:02AM 49.3673 -0.3730 92° East 390 449 28,700 -1,680 Descending FlightAware UK
05:03AM 49.3654 -0.2901 92° East 386 444 27,800 -1,800 Descending FlightAware UK
05:03AM 49.3636 -0.2416 93° East 380 437 27,300 -1,920 Descending FlightAware UK
05:04AM 49.3565 -0.1619 98° East 376 433 26,300 -2,100 Descending FlightAware UK
05:04AM 49.3498 -0.0676 96° East 368 423 25,000 -2,100 Descending FlightAware UK
05:05AM 49.3613 -0.0104 73° East 364 419 24,200 -1,860 Descending FlightAware UK
05:05AM 49.3781 0.0244 53° Northeast 362 417 23,700 -1,620 Descending FlightAware UK
05:05AM 49.4001 0.0704 54° Northeast 356 410 23,100 -1,680 Descending FlightAware UK
05:06AM 49.4393 0.1487 52° Northeast 352 405 21,900 -1,440 Descending FlightAware UK
05:07AM 49.4674 0.2042 52° Northeast 350 403 21,400 -660 Descending FlightAware UK
05:07AM 49.4841 0.2366 52° Northeast 350 403 21,400  Level FlightAware UK
05:07AM 49.5062 0.2798 52° Northeast 348 400 21,400 -1,020 Level FlightAware UK
05:08AM 49.5487 0.4008 61° Northeast 342 394 20,000 -1,500 Descending FlightAware UK
05:09AM 49.5780 0.4856 62° Northeast 334 384 18,900 -1,620 Descending FlightAware UK
05:09AM 49.5905 0.5214 62° Northeast 334 384 18,400 -1,620 Descending FlightAware UK
05:10AM 49.6285 0.6277 61° Northeast 328 377 17,000 -1,500 Descending FlightAware UK
05:11AM 49.6452 0.6736 61° Northeast 324 373 16,500 -1,140 Descending FlightAware UK
05:11AM 49.6621 0.7198 61° Northeast 324 373 16,100 -1,140 Descending FlightAware UK
05:11AM 49.6791 0.7654 60° Northeast 322 371 15,600 -1,200 Descending FlightAware UK
05:12AM 49.6921 0.7999 60° Northeast 320 368 15,300 -1,200 Descending FlightAware UK
05:12AM 49.7092 0.8451 60° Northeast 318 366 14,800 -1,200 Descending FlightAware UK
05:12AM 49.7220 0.8786 60° Northeast 316 364 14,500 -1,200 Descending FlightAware UK
05:13AM 49.7304 0.9286 75° East 314 361 14,000 -1,320 Descending FlightAware UK
05:13AM 49.7243 0.9675 103° East 312 359 13,600 -840 Descending FlightAware UK
05:13AM 49.7075 0.9986 130° Southeast 310 357 13,500 -720 Descending FlightAware UK
05:14AM 49.6883 1.0258 137° Southeast 308 354 13,200 -1,020 Descending FlightAware UK
05:14AM 49.6688 1.0541 137° Southeast 308 354 12,900 -900 Descending FlightAware UK
05:14AM 49.6427 1.0902 138° Southeast 308 354 12,600 -780 Descending FlightAware UK
05:15AM 49.6167 1.1263 138° Southeast 306 352 12,300 -720 Descending FlightAware UK
05:15AM 49.5974 1.1534 138° Southeast 306 352 12,100 -900 Descending FlightAware UK
05:16AM 49.5653 1.1989 137° Southeast 302 348 11,600 -960 Descending FlightAware UK
05:16AM 49.5275 1.2523 137° Southeast 302 348 11,100 -780 Descending FlightAware UK
05:16AM 49.5088 1.2790 137° Southeast 302 348 10,900 -840 Descending FlightAware UK
05:17AM 49.4901 1.3052 138° Southeast 298 343 10,600 -720 Descending FlightAware UK
05:17AM 49.4718 1.3311 138° Southeast 292 336 10,500 -360 Descending FlightAware UK
05:17AM 49.4537 1.3562 138° Southeast 282 325 10,400  Descending FlightAware UK
05:18AM 49.4311 1.3877 138° Southeast 274 315 10,500 2,520 Climbing FlightAware UK
05:18AM 49.4184 1.4054 138° Southeast 277 319 12,000  Climbing FlightAware ADS-B
05:18AM 49.4029 1.4277 138° Southeast 274 315 10,500  Descending FlightAware UK
05:19AM 49.3886 1.4471 138° Southeast 278 320 12,000 1,620 Climbing FlightAware ADS-B
05:19AM 49.3520 1.4981 138° Southeast 277 319 12,000 -1,500 Level FlightAware ADS-B
05:20AM 49.3292 1.5306 138° Southeast 274 315 10,500  Descending FlightAware UK
05:20AM 49.3234 1.5379 138° Southeast 275 316 12,000  Climbing FlightAware ADS-B
05:20AM 49.3065 1.5621 138° Southeast 272 313 10,500  Descending FlightAware UK
05:20AM 49.3019 1.5802 138° Southeast 272 313 12,000 5,280 Climbing FlightAware ADS-B
05:20AM 49.2998 1.5907 107° East 273 314 12,000  Level FlightAware ADS-B
05:20AM 49.2986 1.6015 100° East 273 314 12,000 -2,940 Level FlightAware ADS-B
05:21AM 49.2959 1.6525 100° East 270 311 10,500  Descending FlightAware UK
05:21AM 49.2955 1.6632 100° East 267 307 12,000  Climbing FlightAware ADS-B
05:21AM 49.2937 1.7083 100° East 262 302 10,500  Descending FlightAware UK
05:21AM 49.2933 1.7203 100° East 259 298 12,000 2,280 Climbing FlightAware ADS-B
05:22AM 49.2910 1.7768 94° East 261 300 12,000  Level FlightAware ADS-B
05:22AM 49.2884 1.8353 94° East 258 297 12,000 -1,800 Level FlightAware ADS-B
05:23AM 49.2867 1.8724 94° East 260 299 10,500  Descending FlightAware UK
05:23AM 49.2852 1.9001 94° East 257 296 12,000 1,260 Climbing FlightAware ADS-B
05:24AM 49.2827 1.9545 94° East 256 295 11,500 -900 Descending FlightAware ADS-B
05:24AM 49.2794 2.0241 94° East 257 296 11,000 -480 Descending FlightAware ADS-B
05:25AM 49.2768 2.0789 94° East 256 295 11,000 -1,800 Level FlightAware ADS-B
05:25AM 49.2912 2.1522 94° East 258 297 9,400  Descending FlightAware UK
05:25AM 49.2742 2.1337 94° East 255 293 11,000  Climbing FlightAware ADS-B
05:26AM 49.2723 2.1768 94° East 258 297 9,400  Descending FlightAware UK
05:26AM 49.2715 2.1887 94° East 254 292 11,000 2,460 Climbing FlightAware ADS-B
05:26AM 49.2688 2.2445 94° East 254 292 11,000  Level FlightAware ADS-B
05:27AM 49.2666 2.2917 94° East 254 292 11,000  Level FlightAware ADS-B
05:27AM 49.2639 2.3454 94° East 253 291 11,000  Level FlightAware ADS-B
05:28AM 49.2618 2.3859 95° East 251 289 11,000 -180 Level FlightAware ADS-B
05:28AM 49.2601 2.4198 94° East 249 287 10,900 -1,020 Descending FlightAware ADS-B
05:28AM 49.2575 2.4702 95° East 252 290 10,200 -1,320 Descending FlightAware ADS-B
05:29AM 49.2559 2.5010 95° East 252 290 9,900 -960 Descending FlightAware ADS-B
05:29AM 49.2549 2.5144 97° East 251 289 9,800 -1,020 Descending FlightAware ADS-B
05:29AM 49.2530 2.5340 98° East 251 289 9,600 -1,140 Descending FlightAware ADS-B
05:29AM 49.2497 2.5619 100° East 251 289 9,300 -1,140 Descending FlightAware ADS-B
05:29AM 49.2465 2.5886 100° East 251 289 9,000 -600 Descending FlightAware ADS-B
05:30AM 49.2433 2.6158 100° East 254 292 9,000  Level FlightAware ADS-B
05:30AM 49.2401 2.6429 100° East 253 291 9,000  Level FlightAware ADS-B
05:30AM 49.2370 2.6698 100° East 251 289 9,000  Level FlightAware ADS-B
05:31AM 49.2338 2.6967 100° East 251 289 9,000  Level FlightAware ADS-B
05:31AM 49.2307 2.7232 100° East 252 290 9,000 -420 Level FlightAware ADS-B
05:31AM 49.2273 2.7520 100° East 251 289 8,800 -960 Descending FlightAware ADS-B
05:31AM 49.2239 2.7808 100° East 251 289 8,500 -1,200 Descending FlightAware ADS-B
05:32AM 49.2001 2.8880 109° East 252 290 7,200 -1,140 Descending FlightAware ADS-B
05:33AM 49.1922 2.8955 148° Southeast 253 291 7,100 -540 Descending FlightAware ADS-B
05:33AM 49.1769 2.9082 152° Southeast 250 288 7,000 -600 Descending FlightAware ADS-B
05:33AM 49.1612 2.9209 152° Southeast 248 285 6,800 -840 Descending FlightAware ADS-B
05:33AM 49.1474 2.9321 152° Southeast 248 285 6,600 -1,080 Descending FlightAware ADS-B
05:34AM 49.1317 2.9450 152° Southeast 247 284 6,300 -1,020 Descending FlightAware ADS-B
05:34AM 49.1165 2.9576 152° Southeast 247 284 6,100 -900 Descending FlightAware ADS-B
05:34AM 49.1117 2.9614 152° Southeast 247 284 6,000 -1,680 Descending FlightAware ADS-B
05:34AM 49.1050 2.9657 157° South 248 285 5,800 -1,800 Descending FlightAware ADS-B
05:34AM 49.1006 2.9674 165° South 250 288 5,700 -1,200 Descending FlightAware ADS-B
05:34AM 49.0945 2.9686 173° South 250 288 5,600 -1,080 Descending FlightAware ADS-B
05:34AM 49.0813 2.9691 179° South 250 288 5,400 -1,020 Descending FlightAware ADS-B
05:35AM 49.0662 2.9685 181° South 248 285 5,200 -540 Descending FlightAware ADS-B
05:35AM 49.0401 2.9181 232° Southwest 248 285 4,900 -480 Descending FlightAware ADS-B
05:35AM 49.0418 2.9076 284° West 208 239 4,800 -1,140 Descending FlightAware ADS-B
05:35AM 49.0425 2.9015 280° West 208 239 4,700 -1,260 Descending FlightAware ADS-B
05:36AM 49.0431 2.8728 272° West 210 242 4,300 -1,200 Descending FlightAware ADS-B
05:36AM 49.0423 2.8568 266° West 213 245 4,100 -1,140 Descending FlightAware ADS-B
05:36AM 49.0406 2.8320 264° West 213 245 3,800 -1,020 Descending FlightAware ADS-B
05:37AM 49.0396 2.8095 266° West 212 244 3,600 -1,200 Descending FlightAware ADS-B
05:37AM 49.0381 2.7786 266° West 212 244 3,100 -1,380 Descending FlightAware ADS-B
05:37AM 49.0367 2.7581 264° West 211 243 2,800 -1,200 Descending FlightAware ADS-B
05:37AM 49.0360 2.7403 267° West 206 237 2,600 -1,140 Descending FlightAware ADS-B
05:38AM 49.0350 2.7183 266° West 202 232 2,300 -1,200 Descending FlightAware ADS-B
05:38AM 49.0341 2.7033 265° West 197 227 2,100 -900 Descending FlightAware ADS-B
05:38AM 49.0333 2.6897 265° West 191 220 2,000 -1,140 Descending FlightAware ADS-B
05:38AM 49.0327 2.6752 266° West 179 206 1,700 -1,080 Descending FlightAware ADS-B
05:38AM 49.0319 2.6614 265° West 167 192 1,600 -720 Descending FlightAware ADS-B
05:39AM 49.0311 2.6449 266° West 151 174 1,400 -900 Descending FlightAware ADS-B
05:39AM 49.0304 2.6325 265° West 139 160 1,200 -900 Descending FlightAware ADS-B
05:39AM 49.0301 2.6250 267° West 140 161 1,100 -780 Descending FlightAware ADS-B
05:39AM 49.0296 2.6169 265° West 138 159 1,000 -840 Descending FlightAware ADS-B
05:39AM 49.0292 2.6098 265° West 137 158 900 -900 Descending FlightAware ADS-B
05:39AM 49.0289 2.6040 266° West 136 157 800 -780 Descending FlightAware ADS-B
05:39AM 49.0284 2.5952 265° West 137 158 700 -780 Descending FlightAware ADS-B
05:40AM 49.0277 2.5806 266° West 133 153 500 -720 Descending FlightAware ADS-B
05:40AM 49.0272 2.5714 265° West 134 154 400 -660 Descending FlightAware ADS-B
05:40AM 49.0263 2.5544 265° West 133 153 200 -720 Descending FlightAware ADS-B
05:45AM 47.6505 -1.6767 62° Northeast  Level Estimated
05:46AM 47.7042 -1.5228 63° Northeast  Level Estimated
05:47AM 47.7577 -1.3685 63° Northeast  Level Estimated
05:54AM 47.5953 -1.7556 62° Northeast  Level Estimated
05:55AM 47.6502 -1.6016 62° Northeast  Level Estimated
05:56AM 47.7049 -1.4473 62° Northeast  Level Estimated
05:57AM 47.7594 -1.2926 62° Northeast  Level Estimated
05:58AM 47.8137 -1.1376 62° Northeast  Level Estimated
05:59AM 47.8678 -0.9823 63° Northeast  Level Estimated
06:00AM 47.9216 -0.8266 63° Northeast  Level Estimated
06:01AM 47.9753 -0.6707 63° Northeast  Level Estimated
06:02AM 48.0287 -0.5144 63° Northeast  Level Estimated
06:03AM 48.0819 -0.3578 63° Northeast  Level Estimated
06:04AM 48.1349 -0.2008 63° Northeast  Level Estimated
06:05AM 48.1877 -0.0436 63° Northeast  Level Estimated
06:06AM 48.2403 0.1140 63° Northeast  Level Estimated
06:07AM 48.2927 0.2719 63° Northeast  Level Estimated
06:08AM 48.3448 0.4302 64° Northeast  Level Estimated